sensor_id;sensor_type;location;lat;lon;timestamp;temperature;humidity
23116;DHT22;11727;52.134;5.052;2024-03-06T00:00:12;6.10;99.90
23116;DHT22;11727;52.134;5.052;2024-03-06T00:02:38;6.10;99.90
23116;DHT22;11727;52.134;5.052;2024-03-06T00:05:04;6.10;99.90
23116;DHT22;11727;52.134;5.052;2024-03-06T00:07:30;6.10;99.90
23116;DHT22;11727;52.134;5.052;2024-03-06T00:09:55;6.10;99.90
23116;DHT22;11727;52.134;5.052;2024-03-06T00:12:21;6.10;99.90
23116;DHT22;11727;52.134;5.052;2024-03-06T00:14:46;6.10;99.90
23116;DHT22;11727;52.134;5.052;2024-03-06T00:17:12;6.10;99.90
23116;DHT22;11727;52.134;5.052;2024-03-06T00:19:37;6.10;99.90
23116;DHT22;11727;52.134;5.052;2024-03-06T00:22:03;6.10;99.90
23116;DHT22;11727;52.134;5.052;2024-03-06T00:24:29;6.20;99.90
23116;DHT22;11727;52.134;5.052;2024-03-06T00:26:55;6.20;99.90
23116;DHT22;11727;52.134;5.052;2024-03-06T00:29:20;6.20;99.90
23116;DHT22;11727;52.134;5.052;2024-03-06T00:31:46;6.20;99.90
23116;DHT22;11727;52.134;5.052;2024-03-06T00:34:11;6.20;99.90
23116;DHT22;11727;52.134;5.052;2024-03-06T00:36:42;6.30;99.90
23116;DHT22;11727;52.134;5.052;2024-03-06T00:39:09;6.30;99.90
23116;DHT22;11727;52.134;5.052;2024-03-06T00:41:34;6.30;99.90
23116;DHT22;11727;52.134;5.052;2024-03-06T00:44:00;6.30;99.90
23116;DHT22;11727;52.134;5.052;2024-03-06T00:46:26;6.40;99.90
23116;DHT22;11727;52.134;5.052;2024-03-06T00:48:51;6.40;99.90
23116;DHT22;11727;52.134;5.052;2024-03-06T00:51:16;6.40;99.90
23116;DHT22;11727;52.134;5.052;2024-03-06T00:53:43;6.40;99.90
23116;DHT22;11727;52.134;5.052;2024-03-06T00:56:08;6.40;99.90
23116;DHT22;11727;52.134;5.052;2024-03-06T00:58:33;6.40;99.90
23116;DHT22;11727;52.134;5.052;2024-03-06T01:00:59;6.40;99.90
23116;DHT22;11727;52.134;5.052;2024-03-06T01:03:24;6.50;99.90
23116;DHT22;11727;52.134;5.052;2024-03-06T01:05:50;6.50;99.90
23116;DHT22;11727;52.134;5.052;2024-03-06T01:08:17;6.50;99.90
23116;DHT22;11727;52.134;5.052;2024-03-06T01:10:43;6.50;99.90
23116;DHT22;11727;52.134;5.052;2024-03-06T01:13:09;6.50;99.90
23116;DHT22;11727;52.134;5.052;2024-03-06T01:15:36;6.50;99.90
23116;DHT22;11727;52.134;5.052;2024-03-06T01:18:02;6.50;99.90
23116;DHT22;11727;52.134;5.052;2024-03-06T01:20:28;6.50;99.90
23116;DHT22;11727;52.134;5.052;2024-03-06T01:22:54;6.50;99.90
23116;DHT22;11727;52.134;5.052;2024-03-06T01:25:19;6.50;99.90
23116;DHT22;11727;52.134;5.052;2024-03-06T01:27:45;6.50;99.90
23116;DHT22;11727;52.134;5.052;2024-03-06T01:30:10;6.50;99.90
23116;DHT22;11727;52.134;5.052;2024-03-06T01:32:36;6.50;99.90
23116;DHT22;11727;52.134;5.052;2024-03-06T01:35:02;6.50;99.90
23116;DHT22;11727;52.134;5.052;2024-03-06T01:37:28;6.50;99.90
23116;DHT22;11727;52.134;5.052;2024-03-06T01:39:53;6.50;99.90
23116;DHT22;11727;52.134;5.052;2024-03-06T01:42:19;6.50;99.90
23116;DHT22;11727;52.134;5.052;2024-03-06T01:44:44;6.50;99.90
23116;DHT22;11727;52.134;5.052;2024-03-06T01:47:10;6.60;99.90
23116;DHT22;11727;52.134;5.052;2024-03-06T01:49:35;6.50;99.90
23116;DHT22;11727;52.134;5.052;2024-03-06T01:52:01;6.50;99.90
23116;DHT22;11727;52.134;5.052;2024-03-06T01:54:27;6.50;99.90
23116;DHT22;11727;52.134;5.052;2024-03-06T01:56:53;6.50;99.90
23116;DHT22;11727;52.134;5.052;2024-03-06T01:59:20;6.50;99.90
23116;DHT22;11727;52.134;5.052;2024-03-06T02:01:46;6.50;99.90
23116;DHT22;11727;52.134;5.052;2024-03-06T02:04:12;6.50;99.90
23116;DHT22;11727;52.134;5.052;2024-03-06T02:06:41;6.50;99.90
23116;DHT22;11727;52.134;5.052;2024-03-06T02:09:07;6.60;99.90
23116;DHT22;11727;52.134;5.052;2024-03-06T02:11:33;6.60;99.90
23116;DHT22;11727;52.134;5.052;2024-03-06T02:13:58;6.60;99.90
23116;DHT22;11727;52.134;5.052;2024-03-06T02:16:24;6.60;99.90
23116;DHT22;11727;52.134;5.052;2024-03-06T02:18:53;6.60;99.90
23116;DHT22;11727;52.134;5.052;2024-03-06T02:21:20;6.60;99.90
23116;DHT22;11727;52.134;5.052;2024-03-06T02:23:45;6.60;99.90
23116;DHT22;11727;52.134;5.052;2024-03-06T02:26:11;6.60;99.90
23116;DHT22;11727;52.134;5.052;2024-03-06T02:28:36;6.60;99.90
23116;DHT22;11727;52.134;5.052;2024-03-06T02:31:01;6.60;99.90
23116;DHT22;11727;52.134;5.052;2024-03-06T02:33:27;6.60;99.90
23116;DHT22;11727;52.134;5.052;2024-03-06T02:35:52;6.60;99.90
23116;DHT22;11727;52.134;5.052;2024-03-06T02:38:18;6.60;99.90
23116;DHT22;11727;52.134;5.052;2024-03-06T02:40:43;6.60;99.90
23116;DHT22;11727;52.134;5.052;2024-03-06T02:43:10;6.50;99.90
23116;DHT22;11727;52.134;5.052;2024-03-06T02:45:35;6.40;99.90
23116;DHT22;11727;52.134;5.052;2024-03-06T02:48:01;6.40;99.90
23116;DHT22;11727;52.134;5.052;2024-03-06T02:50:26;6.30;99.90
23116;DHT22;11727;52.134;5.052;2024-03-06T02:52:52;6.30;99.90
23116;DHT22;11727;52.134;5.052;2024-03-06T02:55:18;6.30;99.90
23116;DHT22;11727;52.134;5.052;2024-03-06T02:57:44;6.30;99.90
23116;DHT22;11727;52.134;5.052;2024-03-06T03:00:10;6.20;99.90
23116;DHT22;11727;52.134;5.052;2024-03-06T03:02:38;6.20;99.90
23116;DHT22;11727;52.134;5.052;2024-03-06T03:05:04;6.20;99.90
23116;DHT22;11727;52.134;5.052;2024-03-06T03:07:30;6.20;99.90
23116;DHT22;11727;52.134;5.052;2024-03-06T03:09:55;6.20;99.90
23116;DHT22;11727;52.134;5.052;2024-03-06T03:12:21;6.30;99.90
23116;DHT22;11727;52.134;5.052;2024-03-06T03:14:46;6.30;99.90
23116;DHT22;11727;52.134;5.052;2024-03-06T03:17:12;6.30;99.90
23116;DHT22;11727;52.134;5.052;2024-03-06T03:19:38;6.30;99.90
23116;DHT22;11727;52.134;5.052;2024-03-06T03:22:05;6.30;99.90
23116;DHT22;11727;52.134;5.052;2024-03-06T03:24:30;6.30;99.90
23116;DHT22;11727;52.134;5.052;2024-03-06T03:26:56;6.30;99.90
23116;DHT22;11727;52.134;5.052;2024-03-06T03:29:21;6.40;99.90
23116;DHT22;11727;52.134;5.052;2024-03-06T03:31:47;6.40;99.90
23116;DHT22;11727;52.134;5.052;2024-03-06T03:34:13;6.40;99.90
23116;DHT22;11727;52.134;5.052;2024-03-06T03:36:42;6.40;99.90
23116;DHT22;11727;52.134;5.052;2024-03-06T03:39:07;6.40;99.90
23116;DHT22;11727;52.134;5.052;2024-03-06T03:41:47;6.40;99.90
23116;DHT22;11727;52.134;5.052;2024-03-06T03:44:16;6.40;99.90
23116;DHT22;11727;52.134;5.052;2024-03-06T03:46:42;6.40;99.90
23116;DHT22;11727;52.134;5.052;2024-03-06T03:49:08;6.40;99.90
23116;DHT22;11727;52.134;5.052;2024-03-06T03:51:37;6.40;99.90
23116;DHT22;11727;52.134;5.052;2024-03-06T03:54:02;6.40;99.90
23116;DHT22;11727;52.134;5.052;2024-03-06T03:56:28;6.40;99.90
23116;DHT22;11727;52.134;5.052;2024-03-06T03:58:53;6.40;99.90
23116;DHT22;11727;52.134;5.052;2024-03-06T04:01:19;6.40;99.90
23116;DHT22;11727;52.134;5.052;2024-03-06T04:03:44;6.40;99.90
23116;DHT22;11727;52.134;5.052;2024-03-06T04:06:10;6.40;99.90
23116;DHT22;11727;52.134;5.052;2024-03-06T04:08:36;6.40;99.90
23116;DHT22;11727;52.134;5.052;2024-03-06T04:11:03;6.40;99.90
23116;DHT22;11727;52.134;5.052;2024-03-06T04:13:29;6.40;99.90
23116;DHT22;11727;52.134;5.052;2024-03-06T04:15:54;6.40;99.90
23116;DHT22;11727;52.134;5.052;2024-03-06T04:18:21;6.40;99.90
23116;DHT22;11727;52.134;5.052;2024-03-06T04:20:46;6.50;99.90
23116;DHT22;11727;52.134;5.052;2024-03-06T04:23:12;6.40;99.90
23116;DHT22;11727;52.134;5.052;2024-03-06T04:25:37;6.50;99.90
23116;DHT22;11727;52.134;5.052;2024-03-06T04:28:05;6.40;99.90
23116;DHT22;11727;52.134;5.052;2024-03-06T04:30:33;6.50;99.90
23116;DHT22;11727;52.134;5.052;2024-03-06T04:32:58;6.50;99.90
23116;DHT22;11727;52.134;5.052;2024-03-06T04:35:24;6.40;99.90
23116;DHT22;11727;52.134;5.052;2024-03-06T04:37:50;6.40;99.90
23116;DHT22;11727;52.134;5.052;2024-03-06T04:40:15;6.40;99.90
23116;DHT22;11727;52.134;5.052;2024-03-06T04:42:46;6.40;99.90
23116;DHT22;11727;52.134;5.052;2024-03-06T04:45:14;6.40;99.90
23116;DHT22;11727;52.134;5.052;2024-03-06T04:47:40;6.40;99.90
23116;DHT22;11727;52.134;5.052;2024-03-06T04:50:12;6.40;99.90
23116;DHT22;11727;52.134;5.052;2024-03-06T04:52:39;6.30;99.90
23116;DHT22;11727;52.134;5.052;2024-03-06T04:55:05;6.30;99.90
23116;DHT22;11727;52.134;5.052;2024-03-06T04:57:31;6.30;99.90
23116;DHT22;11727;52.134;5.052;2024-03-06T04:59:57;6.30;99.90
23116;DHT22;11727;52.134;5.052;2024-03-06T05:02:23;6.30;99.90
23116;DHT22;11727;52.134;5.052;2024-03-06T05:04:50;6.20;99.90
23116;DHT22;11727;52.134;5.052;2024-03-06T05:07:15;6.20;99.90
23116;DHT22;11727;52.134;5.052;2024-03-06T05:09:41;6.10;99.90
23116;DHT22;11727;52.134;5.052;2024-03-06T05:12:07;6.10;99.90
23116;DHT22;11727;52.134;5.052;2024-03-06T05:14:32;6.10;99.90
23116;DHT22;11727;52.134;5.052;2024-03-06T05:16:58;6.00;99.90
23116;DHT22;11727;52.134;5.052;2024-03-06T05:19:23;5.90;99.90
23116;DHT22;11727;52.134;5.052;2024-03-06T05:21:49;5.90;99.90
23116;DHT22;11727;52.134;5.052;2024-03-06T05:24:14;5.80;99.90
23116;DHT22;11727;52.134;5.052;2024-03-06T05:26:40;5.80;99.90
23116;DHT22;11727;52.134;5.052;2024-03-06T05:29:05;5.70;99.90
23116;DHT22;11727;52.134;5.052;2024-03-06T05:31:31;5.70;99.90
23116;DHT22;11727;52.134;5.052;2024-03-06T05:33:57;5.60;99.90
23116;DHT22;11727;52.134;5.052;2024-03-06T05:36:23;5.60;99.90
23116;DHT22;11727;52.134;5.052;2024-03-06T05:38:48;5.50;99.90
23116;DHT22;11727;52.134;5.052;2024-03-06T05:41:14;5.50;99.90
23116;DHT22;11727;52.134;5.052;2024-03-06T05:43:41;5.50;99.90
23116;DHT22;11727;52.134;5.052;2024-03-06T05:46:06;5.40;99.90
23116;DHT22;11727;52.134;5.052;2024-03-06T05:48:32;5.30;99.90
23116;DHT22;11727;52.134;5.052;2024-03-06T05:50:58;5.20;99.90
23116;DHT22;11727;52.134;5.052;2024-03-06T05:53:24;5.20;99.90
23116;DHT22;11727;52.134;5.052;2024-03-06T05:55:49;5.20;99.90
23116;DHT22;11727;52.134;5.052;2024-03-06T05:58:15;5.10;99.90
23116;DHT22;11727;52.134;5.052;2024-03-06T06:00:41;5.10;99.90
23116;DHT22;11727;52.134;5.052;2024-03-06T06:03:07;5.10;99.90
23116;DHT22;11727;52.134;5.052;2024-03-06T06:05:33;5.10;99.90
23116;DHT22;11727;52.134;5.052;2024-03-06T06:07:58;5.10;99.90
23116;DHT22;11727;52.134;5.052;2024-03-06T06:10:25;5.00;99.90
23116;DHT22;11727;52.134;5.052;2024-03-06T06:12:50;5.00;99.90
23116;DHT22;11727;52.134;5.052;2024-03-06T06:15:16;5.00;99.90
23116;DHT22;11727;52.134;5.052;2024-03-06T06:17:49;4.90;99.90
23116;DHT22;11727;52.134;5.052;2024-03-06T06:20:15;4.80;99.90
23116;DHT22;11727;52.134;5.052;2024-03-06T06:22:41;4.80;99.90
23116;DHT22;11727;52.134;5.052;2024-03-06T06:25:07;4.80;99.90
23116;DHT22;11727;52.134;5.052;2024-03-06T06:27:32;4.80;99.90
23116;DHT22;11727;52.134;5.052;2024-03-06T06:29:58;4.80;99.90
23116;DHT22;11727;52.134;5.052;2024-03-06T06:32:24;4.80;99.90
23116;DHT22;11727;52.134;5.052;2024-03-06T06:34:49;4.90;99.90
23116;DHT22;11727;52.134;5.052;2024-03-06T06:37:15;4.90;99.90
23116;DHT22;11727;52.134;5.052;2024-03-06T06:39:41;5.00;99.90
23116;DHT22;11727;52.134;5.052;2024-03-06T06:42:06;5.00;99.90
23116;DHT22;11727;52.134;5.052;2024-03-06T06:44:32;5.10;99.90
23116;DHT22;11727;52.134;5.052;2024-03-06T06:46:57;5.10;99.90
23116;DHT22;11727;52.134;5.052;2024-03-06T06:49:23;5.20;99.90
23116;DHT22;11727;52.134;5.052;2024-03-06T06:51:49;5.20;99.90
23116;DHT22;11727;52.134;5.052;2024-03-06T06:54:14;5.20;99.90
23116;DHT22;11727;52.134;5.052;2024-03-06T06:56:40;5.30;99.90
23116;DHT22;11727;52.134;5.052;2024-03-06T06:59:05;5.30;99.90
23116;DHT22;11727;52.134;5.052;2024-03-06T07:01:31;5.40;99.90
23116;DHT22;11727;52.134;5.052;2024-03-06T07:03:58;5.40;99.90
23116;DHT22;11727;52.134;5.052;2024-03-06T07:06:23;5.40;99.90
23116;DHT22;11727;52.134;5.052;2024-03-06T07:08:50;5.40;99.90
23116;DHT22;11727;52.134;5.052;2024-03-06T07:11:18;5.50;99.90
23116;DHT22;11727;52.134;5.052;2024-03-06T07:13:44;5.50;99.90
23116;DHT22;11727;52.134;5.052;2024-03-06T07:16:10;5.50;99.90
23116;DHT22;11727;52.134;5.052;2024-03-06T07:18:35;5.60;99.90
23116;DHT22;11727;52.134;5.052;2024-03-06T07:21:01;5.50;99.90
23116;DHT22;11727;52.134;5.052;2024-03-06T07:23:26;5.60;99.90
23116;DHT22;11727;52.134;5.052;2024-03-06T07:25:52;5.70;99.90
23116;DHT22;11727;52.134;5.052;2024-03-06T07:28:17;5.70;99.90
23116;DHT22;11727;52.134;5.052;2024-03-06T07:30:43;5.80;99.90
23116;DHT22;11727;52.134;5.052;2024-03-06T07:33:08;5.90;99.90
23116;DHT22;11727;52.134;5.052;2024-03-06T07:35:34;5.90;99.90
23116;DHT22;11727;52.134;5.052;2024-03-06T07:38:01;6.00;99.90
23116;DHT22;11727;52.134;5.052;2024-03-06T07:40:28;6.00;99.90
23116;DHT22;11727;52.134;5.052;2024-03-06T07:42:53;6.10;99.90
23116;DHT22;11727;52.134;5.052;2024-03-06T07:45:19;6.10;99.90
23116;DHT22;11727;52.134;5.052;2024-03-06T07:47:45;6.20;99.90
23116;DHT22;11727;52.134;5.052;2024-03-06T07:50:11;6.20;99.90
23116;DHT22;11727;52.134;5.052;2024-03-06T07:52:37;6.20;99.90
23116;DHT22;11727;52.134;5.052;2024-03-06T07:55:03;6.20;99.90
23116;DHT22;11727;52.134;5.052;2024-03-06T07:57:28;6.20;99.90
23116;DHT22;11727;52.134;5.052;2024-03-06T07:59:54;6.30;99.90
23116;DHT22;11727;52.134;5.052;2024-03-06T08:02:20;6.40;99.90
23116;DHT22;11727;52.134;5.052;2024-03-06T08:04:46;6.40;99.90
23116;DHT22;11727;52.134;5.052;2024-03-06T08:07:12;6.50;99.90
23116;DHT22;11727;52.134;5.052;2024-03-06T08:09:38;6.50;99.90
23116;DHT22;11727;52.134;5.052;2024-03-06T08:12:04;6.50;99.90
23116;DHT22;11727;52.134;5.052;2024-03-06T08:14:29;6.50;99.90
23116;DHT22;11727;52.134;5.052;2024-03-06T08:16:55;6.60;99.90
23116;DHT22;11727;52.134;5.052;2024-03-06T08:19:21;6.70;99.90
23116;DHT22;11727;52.134;5.052;2024-03-06T08:21:46;6.70;99.90
23116;DHT22;11727;52.134;5.052;2024-03-06T08:24:12;6.90;99.90
23116;DHT22;11727;52.134;5.052;2024-03-06T08:26:37;7.00;99.90
23116;DHT22;11727;52.134;5.052;2024-03-06T08:29:03;7.10;99.90
23116;DHT22;11727;52.134;5.052;2024-03-06T08:31:28;7.10;99.90
23116;DHT22;11727;52.134;5.052;2024-03-06T08:33:54;7.20;99.90
23116;DHT22;11727;52.134;5.052;2024-03-06T08:36:20;7.30;99.90
23116;DHT22;11727;52.134;5.052;2024-03-06T08:38:46;7.40;99.90
23116;DHT22;11727;52.134;5.052;2024-03-06T08:41:11;7.60;99.90
23116;DHT22;11727;52.134;5.052;2024-03-06T08:43:37;7.80;99.90
23116;DHT22;11727;52.134;5.052;2024-03-06T08:46:02;8.10;99.90
23116;DHT22;11727;52.134;5.052;2024-03-06T08:48:28;8.30;99.90
23116;DHT22;11727;52.134;5.052;2024-03-06T08:50:54;8.60;99.90
23116;DHT22;11727;52.134;5.052;2024-03-06T08:53:20;8.80;99.90
23116;DHT22;11727;52.134;5.052;2024-03-06T08:55:45;9.00;99.90
23116;DHT22;11727;52.134;5.052;2024-03-06T08:58:11;9.10;99.90
23116;DHT22;11727;52.134;5.052;2024-03-06T09:00:36;9.20;99.90
23116;DHT22;11727;52.134;5.052;2024-03-06T09:03:02;9.20;99.90
23116;DHT22;11727;52.134;5.052;2024-03-06T09:05:28;9.30;99.90
23116;DHT22;11727;52.134;5.052;2024-03-06T09:07:53;9.30;99.90
23116;DHT22;11727;52.134;5.052;2024-03-06T09:10:19;9.30;99.90
23116;DHT22;11727;52.134;5.052;2024-03-06T09:12:44;9.30;99.90
23116;DHT22;11727;52.134;5.052;2024-03-06T09:15:11;9.20;99.90
23116;DHT22;11727;52.134;5.052;2024-03-06T09:17:37;9.20;99.90
23116;DHT22;11727;52.134;5.052;2024-03-06T09:20:02;9.10;99.90
23116;DHT22;11727;52.134;5.052;2024-03-06T09:22:41;8.90;99.90
23116;DHT22;11727;52.134;5.052;2024-03-06T09:25:07;8.90;99.90
23116;DHT22;11727;52.134;5.052;2024-03-06T09:27:32;9.00;99.90
23116;DHT22;11727;52.134;5.052;2024-03-06T09:29:58;9.10;99.90
23116;DHT22;11727;52.134;5.052;2024-03-06T09:32:24;9.20;99.90
23116;DHT22;11727;52.134;5.052;2024-03-06T09:34:51;9.40;99.90
23116;DHT22;11727;52.134;5.052;2024-03-06T09:37:17;9.60;99.90
23116;DHT22;11727;52.134;5.052;2024-03-06T09:39:43;9.80;99.90
23116;DHT22;11727;52.134;5.052;2024-03-06T09:42:12;10.00;99.90
23116;DHT22;11727;52.134;5.052;2024-03-06T09:44:37;10.20;99.90
23116;DHT22;11727;52.134;5.052;2024-03-06T09:47:03;10.40;99.90
23116;DHT22;11727;52.134;5.052;2024-03-06T09:49:29;10.70;99.90
23116;DHT22;11727;52.134;5.052;2024-03-06T09:51:56;10.80;99.90
23116;DHT22;11727;52.134;5.052;2024-03-06T09:54:23;10.90;99.90
23116;DHT22;11727;52.134;5.052;2024-03-06T09:56:51;11.00;99.90
23116;DHT22;11727;52.134;5.052;2024-03-06T09:59:16;11.10;99.90
23116;DHT22;11727;52.134;5.052;2024-03-06T10:01:58;11.30;99.90
23116;DHT22;11727;52.134;5.052;2024-03-06T10:04:27;11.30;99.90
23116;DHT22;11727;52.134;5.052;2024-03-06T10:06:54;11.50;99.90
23116;DHT22;11727;52.134;5.052;2024-03-06T10:09:23;11.60;99.90
23116;DHT22;11727;52.134;5.052;2024-03-06T10:11:48;11.70;99.90
23116;DHT22;11727;52.134;5.052;2024-03-06T10:14:14;11.90;99.90
23116;DHT22;11727;52.134;5.052;2024-03-06T10:16:55;12.00;99.90
23116;DHT22;11727;52.134;5.052;2024-03-06T10:19:22;12.10;99.90
23116;DHT22;11727;52.134;5.052;2024-03-06T10:21:48;12.20;99.90
23116;DHT22;11727;52.134;5.052;2024-03-06T10:24:19;12.30;99.90
23116;DHT22;11727;52.134;5.052;2024-03-06T10:26:46;12.50;99.90
23116;DHT22;11727;52.134;5.052;2024-03-06T10:29:14;12.60;99.90
23116;DHT22;11727;52.134;5.052;2024-03-06T10:31:40;12.60;99.90
23116;DHT22;11727;52.134;5.052;2024-03-06T10:34:06;12.90;99.90
23116;DHT22;11727;52.134;5.052;2024-03-06T10:36:31;13.00;99.90
23116;DHT22;11727;52.134;5.052;2024-03-06T10:38:57;13.10;99.90
23116;DHT22;11727;52.134;5.052;2024-03-06T10:41:25;13.20;99.90
23116;DHT22;11727;52.134;5.052;2024-03-06T10:43:53;13.20;99.90
23116;DHT22;11727;52.134;5.052;2024-03-06T10:46:20;13.20;99.90
23116;DHT22;11727;52.134;5.052;2024-03-06T10:48:46;13.30;99.90
23116;DHT22;11727;52.134;5.052;2024-03-06T10:51:13;13.40;99.90
23116;DHT22;11727;52.134;5.052;2024-03-06T10:53:38;13.40;99.90
23116;DHT22;11727;52.134;5.052;2024-03-06T10:56:05;13.40;99.90
23116;DHT22;11727;52.134;5.052;2024-03-06T10:58:34;13.40;99.90
23116;DHT22;11727;52.134;5.052;2024-03-06T11:01:00;13.30;99.90
23116;DHT22;11727;52.134;5.052;2024-03-06T11:03:26;13.30;99.90
23116;DHT22;11727;52.134;5.052;2024-03-06T11:05:52;13.30;99.90
23116;DHT22;11727;52.134;5.052;2024-03-06T11:08:18;13.40;99.90
23116;DHT22;11727;52.134;5.052;2024-03-06T11:10:43;13.40;99.90
23116;DHT22;11727;52.134;5.052;2024-03-06T11:13:24;13.60;99.90
23116;DHT22;11727;52.134;5.052;2024-03-06T11:15:51;13.70;99.90
23116;DHT22;11727;52.134;5.052;2024-03-06T11:23:30;13.70;99.90
23116;DHT22;11727;52.134;5.052;2024-03-06T11:26:04;13.70;99.90
23116;DHT22;11727;52.134;5.052;2024-03-06T11:28:36;13.80;99.90
23116;DHT22;11727;52.134;5.052;2024-03-06T11:31:06;13.80;99.90
23116;DHT22;11727;52.134;5.052;2024-03-06T11:36:16;13.80;99.90
23116;DHT22;11727;52.134;5.052;2024-03-06T11:44:00;13.90;99.90
23116;DHT22;11727;52.134;5.052;2024-03-06T11:46:44;14.00;99.90
23116;DHT22;11727;52.134;5.052;2024-03-06T11:49:16;13.90;99.90
23116;DHT22;11727;52.134;5.052;2024-03-06T11:51:49;13.90;99.90
23116;DHT22;11727;52.134;5.052;2024-03-06T11:54:14;13.80;99.90
23116;DHT22;11727;52.134;5.052;2024-03-06T11:56:40;13.90;99.90
23116;DHT22;11727;52.134;5.052;2024-03-06T11:59:06;13.80;99.90
23116;DHT22;11727;52.134;5.052;2024-03-06T12:01:35;13.80;99.90
23116;DHT22;11727;52.134;5.052;2024-03-06T12:04:02;13.80;99.90
23116;DHT22;11727;52.134;5.052;2024-03-06T12:06:28;13.80;99.90
23116;DHT22;11727;52.134;5.052;2024-03-06T12:08:53;13.80;99.90
23116;DHT22;11727;52.134;5.052;2024-03-06T12:11:19;13.80;99.90
23116;DHT22;11727;52.134;5.052;2024-03-06T12:13:49;13.90;99.90
23116;DHT22;11727;52.134;5.052;2024-03-06T12:16:15;14.00;99.90
23116;DHT22;11727;52.134;5.052;2024-03-06T12:18:41;14.00;99.90
23116;DHT22;11727;52.134;5.052;2024-03-06T12:21:06;14.10;99.90
23116;DHT22;11727;52.134;5.052;2024-03-06T12:23:35;14.10;99.90
23116;DHT22;11727;52.134;5.052;2024-03-06T12:26:08;14.10;99.90
23116;DHT22;11727;52.134;5.052;2024-03-06T12:28:39;14.00;99.90
23116;DHT22;11727;52.134;5.052;2024-03-06T12:31:05;14.00;99.90
23116;DHT22;11727;52.134;5.052;2024-03-06T12:33:31;14.10;99.90
23116;DHT22;11727;52.134;5.052;2024-03-06T12:36:03;14.10;99.90
23116;DHT22;11727;52.134;5.052;2024-03-06T12:38:29;14.10;99.90
23116;DHT22;11727;52.134;5.052;2024-03-06T12:40:55;14.10;99.90
23116;DHT22;11727;52.134;5.052;2024-03-06T12:43:21;14.10;99.90
23116;DHT22;11727;52.134;5.052;2024-03-06T12:45:46;14.10;99.90
23116;DHT22;11727;52.134;5.052;2024-03-06T12:48:12;14.10;99.90
23116;DHT22;11727;52.134;5.052;2024-03-06T12:50:38;14.10;99.90
23116;DHT22;11727;52.134;5.052;2024-03-06T12:53:03;14.10;99.90
23116;DHT22;11727;52.134;5.052;2024-03-06T12:55:32;14.10;99.90
23116;DHT22;11727;52.134;5.052;2024-03-06T12:57:57;14.10;99.90
23116;DHT22;11727;52.134;5.052;2024-03-06T13:00:23;14.10;99.90
23116;DHT22;11727;52.134;5.052;2024-03-06T13:02:49;14.10;99.90
23116;DHT22;11727;52.134;5.052;2024-03-06T13:05:16;13.80;99.90
23116;DHT22;11727;52.134;5.052;2024-03-06T13:07:45;13.80;99.90
23116;DHT22;11727;52.134;5.052;2024-03-06T13:10:10;13.80;99.90
23116;DHT22;11727;52.134;5.052;2024-03-06T13:12:37;13.90;99.90
23116;DHT22;11727;52.134;5.052;2024-03-06T13:15:03;14.00;99.90
23116;DHT22;11727;52.134;5.052;2024-03-06T13:17:35;14.00;99.90
23116;DHT22;11727;52.134;5.052;2024-03-06T13:20:00;14.20;99.90
23116;DHT22;11727;52.134;5.052;2024-03-06T13:22:27;14.30;99.90
23116;DHT22;11727;52.134;5.052;2024-03-06T13:24:52;14.40;99.90
23116;DHT22;11727;52.134;5.052;2024-03-06T13:27:18;14.50;99.90
23116;DHT22;11727;52.134;5.052;2024-03-06T13:29:43;14.60;99.90
23116;DHT22;11727;52.134;5.052;2024-03-06T13:32:09;14.60;99.90
23116;DHT22;11727;52.134;5.052;2024-03-06T13:34:34;14.60;99.90
23116;DHT22;11727;52.134;5.052;2024-03-06T13:37:00;14.60;99.90
23116;DHT22;11727;52.134;5.052;2024-03-06T13:39:25;14.40;99.90
23116;DHT22;11727;52.134;5.052;2024-03-06T13:41:51;14.40;99.90
23116;DHT22;11727;52.134;5.052;2024-03-06T13:44:17;14.50;99.90
23116;DHT22;11727;52.134;5.052;2024-03-06T13:46:43;14.50;99.90
23116;DHT22;11727;52.134;5.052;2024-03-06T13:49:11;14.30;99.90
23116;DHT22;11727;52.134;5.052;2024-03-06T13:51:47;14.40;99.90
23116;DHT22;11727;52.134;5.052;2024-03-06T13:54:13;14.40;99.90
23116;DHT22;11727;52.134;5.052;2024-03-06T13:56:38;14.50;99.90
23116;DHT22;11727;52.134;5.052;2024-03-06T13:59:06;14.60;99.90
23116;DHT22;11727;52.134;5.052;2024-03-06T14:01:31;14.80;99.90
23116;DHT22;11727;52.134;5.052;2024-03-06T14:03:57;14.90;99.90
23116;DHT22;11727;52.134;5.052;2024-03-06T14:06:22;14.90;99.90
23116;DHT22;11727;52.134;5.052;2024-03-06T14:08:48;15.00;99.90
23116;DHT22;11727;52.134;5.052;2024-03-06T14:11:13;15.10;99.90
23116;DHT22;11727;52.134;5.052;2024-03-06T14:13:38;15.00;99.90
23116;DHT22;11727;52.134;5.052;2024-03-06T14:16:04;15.00;99.90
23116;DHT22;11727;52.134;5.052;2024-03-06T14:18:29;15.00;99.90
23116;DHT22;11727;52.134;5.052;2024-03-06T14:20:55;15.10;99.90
23116;DHT22;11727;52.134;5.052;2024-03-06T14:23:21;15.20;99.90
23116;DHT22;11727;52.134;5.052;2024-03-06T14:25:47;15.30;99.90
23116;DHT22;11727;52.134;5.052;2024-03-06T14:28:12;15.30;99.90
23116;DHT22;11727;52.134;5.052;2024-03-06T14:30:38;15.30;99.90
23116;DHT22;11727;52.134;5.052;2024-03-06T14:33:04;15.20;99.90
23116;DHT22;11727;52.134;5.052;2024-03-06T14:35:29;15.20;99.90
23116;DHT22;11727;52.134;5.052;2024-03-06T14:38:01;15.10;99.90
23116;DHT22;11727;52.134;5.052;2024-03-06T14:40:27;15.20;99.90
23116;DHT22;11727;52.134;5.052;2024-03-06T14:42:53;15.30;99.90
23116;DHT22;11727;52.134;5.052;2024-03-06T14:45:18;15.40;99.90
23116;DHT22;11727;52.134;5.052;2024-03-06T14:47:44;15.40;99.90
23116;DHT22;11727;52.134;5.052;2024-03-06T14:50:12;15.40;99.90
23116;DHT22;11727;52.134;5.052;2024-03-06T14:52:37;15.30;99.90
23116;DHT22;11727;52.134;5.052;2024-03-06T14:55:05;15.30;99.90
23116;DHT22;11727;52.134;5.052;2024-03-06T14:57:34;15.40;99.90
23116;DHT22;11727;52.134;5.052;2024-03-06T14:59:59;15.40;99.90
23116;DHT22;11727;52.134;5.052;2024-03-06T15:02:27;15.40;99.90
23116;DHT22;11727;52.134;5.052;2024-03-06T15:05:01;15.40;99.90
23116;DHT22;11727;52.134;5.052;2024-03-06T15:07:29;15.40;99.90
23116;DHT22;11727;52.134;5.052;2024-03-06T15:09:55;15.60;99.90
23116;DHT22;11727;52.134;5.052;2024-03-06T15:12:23;15.60;99.90
23116;DHT22;11727;52.134;5.052;2024-03-06T15:14:48;15.70;99.90
23116;DHT22;11727;52.134;5.052;2024-03-06T15:17:14;15.70;99.90
23116;DHT22;11727;52.134;5.052;2024-03-06T15:19:39;15.70;99.90
23116;DHT22;11727;52.134;5.052;2024-03-06T15:22:05;15.70;99.90
23116;DHT22;11727;52.134;5.052;2024-03-06T15:24:31;15.70;99.90
23116;DHT22;11727;52.134;5.052;2024-03-06T15:26:57;15.70;99.90
23116;DHT22;11727;52.134;5.052;2024-03-06T15:29:23;15.60;99.90
23116;DHT22;11727;52.134;5.052;2024-03-06T15:31:48;15.50;99.90
23116;DHT22;11727;52.134;5.052;2024-03-06T15:34:14;15.60;99.90
23116;DHT22;11727;52.134;5.052;2024-03-06T15:36:39;15.60;99.90
23116;DHT22;11727;52.134;5.052;2024-03-06T15:39:05;15.50;99.90
23116;DHT22;11727;52.134;5.052;2024-03-06T15:41:31;15.30;99.90
23116;DHT22;11727;52.134;5.052;2024-03-06T15:43:57;15.10;99.90
23116;DHT22;11727;52.134;5.052;2024-03-06T15:46:23;14.90;99.90